J.e. O'donnell — WDC2694 — position and weather

sailwx.info

Track history (hours):
 
Tides and Currents Weather Stations Pressure Air Temp Water Temp Dewpoint Dewpoint Depression Visibility Wind Speed Wind Dir Waves Ship Positions

J.e. O'donnell

Owner: Kirby Inland Marine LP, Houston, TX. More information available from US FCC via Universal Licensing System and Coast Guard Vessel Documentation Center.

Last reported at 2018-May-23 20:25 UTC. Time now 2018-Jun-18 15:04 UTC.
Position N 28°56' W 095°19'.
Warning: this ship's position is 25 days out of date.

Length 22 m; draft 3 m.

Type: . MMSI: 366996490.

Date/timePositionNaut miles runAvg speedWind from/ knotsBaromVisibWave heightAir tempDewpointWater temp
2018-May-23 20:25N 28°56' W 095°19'1 1.6
2018-May-23 20:00N 28°56' W 095°20'1 0.3
2018-May-23 17:56N 28°57' W 095°20'0 0.0
2018-May-23 17:20N 28°57' W 095°20'0 1.0
2018-May-23 16:54N 28°57' W 095°20'0 0.0
2018-May-23 16:18N 28°57' W 095°20'0 0.1
2018-May-23 15:51N 28°57' W 095°20'1 1.7
2018-May-23 15:31N 28°57' W 095°20'2 4.1
2018-May-23 14:59N 28°57' W 095°18'3 5.8
2018-May-23 14:30N 28°59' W 095°15'3 6.5
2018-May-23 14:00N 29°02' W 095°14'3 6.7
2018-May-23 13:30N 29°05' W 095°12'3 6.5
2018-May-23 13:00N 29°08' W 095°10'3 6.6
2018-May-23 12:30N 29°10' W 095°07'3 6.6
2018-May-23 12:00N 29°12' W 095°04'3 5.9
2018-May-23 11:30N 29°14' W 095°02'3 6.2
2018-May-23 11:00N 29°16' W 094°59'3 6.1
2018-May-23 10:30N 29°17' W 094°56'3 5.3
2018-May-23 10:00N 29°18' W 094°53'1 2.3
2018-May-23 09:30N 29°19' W 094°52'3 5.6
2018-May-23 09:00N 29°21' W 094°50'3 5.6
2018-May-23 08:30N 29°22' W 094°47'1 0.5
2018-May-23 05:55N 29°23' W 094°46'2 3.9
2018-May-23 05:30N 29°22' W 094°47'2 4.9
2018-May-23 05:00N 29°22' W 094°50'3 5.1
2018-May-23 04:28N 29°23' W 094°53'1 2.0
2018-May-23 03:48N 29°22' W 094°54'2 3.6
2018-May-23 03:22N 29°23' W 094°53'2 4.9
2018-May-23 03:00N 29°22' W 094°51'3 5.0
2018-May-23 02:30N 29°22' W 094°48'10 5.5
2018-May-23 00:39N 29°31' W 094°53'1 5.3
2018-May-23 00:24N 29°32' W 094°54'2 5.1
2018-May-23 00:00N 29°34' W 094°55'3 5.2
2018-May-22 23:30N 29°36' W 094°57'3 5.6
2018-May-22 22:58N 29°39' W 094°58'3 6.4
2018-May-22 22:30N 29°41' W 094°59'4 0.2
2018-May-21 21:56N 29°44' W 095°03'2 3.6
2018-May-21 21:25N 29°43' W 095°01'2 3.8
2018-May-21 21:00N 29°42' W 094°60'2 4.4
2018-May-21 20:30N 29°40' W 094°59'2 4.1
2018-May-21 20:00N 29°38' W 094°58'1 2.9
2018-May-21 19:30N 29°37' W 094°58'2 4.4
2018-May-21 19:00N 29°37' W 095°01'0 0.9
2018-May-21 18:28N 29°37' W 095°01'0 0.0
2018-May-21 17:58N 29°37' W 095°01'0 0.1
2018-May-21 17:28N 29°37' W 095°01'0 0.3
2018-May-21 16:58N 29°37' W 095°01'0 0.1
2018-May-21 16:28N 29°37' W 095°02'0 0.0
2018-May-21 15:58N 29°37' W 095°02'0 0.0
2018-May-21 15:28N 29°37' W 095°02'0 0.0
2018-May-21 14:58N 29°37' W 095°02'0 0.0
2018-May-21 14:28N 29°37' W 095°02'0 0.0
2018-May-21 13:58N 29°37' W 095°02'0 0.0
2018-May-21 13:28N 29°37' W 095°02'0 0.0
2018-May-21 12:58N 29°37' W 095°02'0 0.0
2018-May-21 12:28N 29°37' W 095°02'0 0.0
2018-May-21 11:55N 29°37' W 095°02'0 0.0
2018-May-21 11:25N 29°37' W 095°02'0 0.0
2018-May-21 10:58N 29°37' W 095°02'0 0.0
2018-May-21 10:28N 29°37' W 095°02'0 0.0
2018-May-21 09:58N 29°37' W 095°02'0 0.0
2018-May-21 09:28N 29°37' W 095°02'0 0.0
2018-May-21 08:58N 29°37' W 095°02'0 0.0
2018-May-21 08:28N 29°37' W 095°02'0 0.0
2018-May-21 07:55N 29°37' W 095°02'0 0.0
2018-May-21 07:28N 29°37' W 095°02'0 0.0
2018-May-21 06:58N 29°37' W 095°02'0 0.0
2018-May-21 06:28N 29°37' W 095°02'0 0.0
2018-May-21 05:58N 29°37' W 095°02'0 0.0
2018-May-21 05:28N 29°37' W 095°02'0 0.0
2018-May-21 04:58N 29°37' W 095°02'0 0.0
2018-May-21 04:25N 29°37' W 095°02'0 0.0
2018-May-21 03:58N 29°37' W 095°02'0 0.0
2018-May-21 03:28N 29°37' W 095°02'0 0.0
2018-May-21 02:58N 29°37' W 095°02'0 0.1
2018-May-21 02:30N 29°37' W 095°01'0 0.0
2018-May-21 01:57N 29°37' W 095°01'0 0.0
2018-May-21 01:30N 29°37' W 095°01'0 0.0
2018-May-21 00:57N 29°37' W 095°01'0 0.3
2018-May-21 00:28N 29°37' W 095°01'0 0.2
2018-May-20 23:58N 29°37' W 095°01'0 0.0
2018-May-20 23:28N 29°37' W 095°01'0 0.0
2018-May-20 23:01N 29°37' W 095°01'0 0.0
2018-May-20 22:31N 29°37' W 095°01'0 0.0
2018-May-20 22:01N 29°37' W 095°01'0 0.0
2018-May-20 21:30N 29°37' W 095°01'0 0.0
2018-May-20 21:00N 29°37' W 095°01'0 0.0
2018-May-20 20:30N 29°37' W 095°01'0 0.0
2018-May-20 20:00N 29°37' W 095°01'0 0.1
2018-May-20 19:29N 29°37' W 095°01'0 0.2
2018-May-20 19:00N 29°37' W 095°02'0 0.0
2018-May-20 18:30N 29°37' W 095°02'0 0.0
2018-May-20 18:00N 29°37' W 095°02'0 0.0
2018-May-20 17:30N 29°37' W 095°02'0 0.0
2018-May-20 17:00N 29°37' W 095°02'0 0.0
2018-May-20 16:30N 29°37' W 095°02'0 0.0
2018-May-20 16:00N 29°37' W 095°02'0 0.0
2018-May-20 15:30N 29°37' W 095°02'0 0.0
2018-May-20 15:00N 29°37' W 095°02'0 0.0
2018-May-20 14:26N 29°37' W 095°02'0 0.0
2018-May-20 13:59N 29°37' W 095°02'0 0.0
2018-May-20 13:29N 29°37' W 095°02'0 0.0
2018-May-20 12:59N 29°37' W 095°02'0 0.0
2018-May-20 12:29N 29°37' W 095°02'0 0.0
2018-May-20 11:59N 29°37' W 095°02'0 0.0
2018-May-20 11:29N 29°37' W 095°02'0 0.0
2018-May-20 10:59N 29°37' W 095°02'0 0.0
2018-May-20 10:29N 29°37' W 095°02'0 0.0
2018-May-20 09:59N 29°37' W 095°02'0 0.0
2018-May-20 09:29N 29°37' W 095°02'0 0.0
2018-May-20 08:59N 29°37' W 095°02'0 0.0
2018-May-20 08:29N 29°37' W 095°02'0 0.0
2018-May-20 07:59N 29°37' W 095°02'0 0.0
2018-May-20 07:29N 29°37' W 095°02'0 0.0
2018-May-20 06:59N 29°37' W 095°02'0 0.0
2018-May-20 06:29N 29°37' W 095°02'0 0.1
2018-May-20 05:59N 29°37' W 095°01'0 0.0
2018-May-20 05:29N 29°37' W 095°01'0 0.0
2018-May-20 04:59N 29°37' W 095°01'0 0.0
2018-May-20 04:29N 29°37' W 095°01'0 0.3
2018-May-20 03:59N 29°37' W 095°01'0 0.1
2018-May-20 03:28N 29°37' W 095°01'2 3.7
2018-May-20 03:00N 29°37' W 094°59'2 3.9
2018-May-20 02:30N 29°38' W 094°58'3 6.5
2018-May-20 02:00N 29°41' W 094°59'8 0.2
2018-May-18 11:16N 29°47' W 095°06'0 0.1
2018-May-18 10:57N 29°47' W 095°06'0 0.1
2018-May-18 10:30N 29°47' W 095°06'0 0.0
2018-May-18 10:00N 29°47' W 095°06'0 0.2
2018-May-18 09:29N 29°47' W 095°06'0 0.0
2018-May-18 08:55N 29°47' W 095°06'0 0.2
2018-May-18 08:21N 29°47' W 095°06'0 0.0
2018-May-18 08:00N 29°47' W 095°06'0 0.0
2018-May-18 07:27N 29°47' W 095°06'0 0.0
2018-May-18 07:00N 29°47' W 095°06'0 0.0
2018-May-18 06:30N 29°47' W 095°06'0 0.0
2018-May-18 06:00N 29°47' W 095°06'0 0.0
2018-May-18 05:30N 29°47' W 095°06'0 0.0
2018-May-18 05:00N 29°47' W 095°06'0 0.0
2018-May-18 04:24N 29°47' W 095°06'0 0.0
2018-May-18 04:00N 29°47' W 095°06'0 0.2
2018-May-18 03:20N 29°47' W 095°06'0 0.1
2018-May-18 02:56N 29°47' W 095°06'0 0.1
2018-May-18 02:28N 29°47' W 095°06'1 0.1
2018-May-17 13:32N 29°46' W 095°05'0 3.6
2018-May-17 13:28N 29°46' W 095°05'1 1.1
2018-May-17 12:51N 29°46' W 095°05'1 3.4
2018-May-17 12:28N 29°45' W 095°04'3 5.7
2018-May-17 11:59N 29°44' W 095°01'2 5.1
2018-May-17 11:30N 29°42' W 094°60'3 5.9
2018-May-17 11:00N 29°39' W 094°58'3 6.0
2018-May-17 10:30N 29°36' W 094°57'3 6.0
2018-May-17 10:00N 29°34' W 094°55'3 6.2
2018-May-17 09:30N 29°31' W 094°53'3 5.8
2018-May-17 09:00N 29°29' W 094°51'6 5.4
2018-May-17 07:54N 29°23' W 094°49'2 3.4
2018-May-17 07:19N 29°23' W 094°46'1 2.6
2018-May-17 06:58N 29°24' W 094°46'2 3.6
2018-May-17 06:30N 29°25' W 094°44'3 5.1
2018-May-17 05:59N 29°26' W 094°42'2 3.5
2018-May-17 05:30N 29°27' W 094°40'3 5.3
2018-May-17 05:00N 29°28' W 094°38'2 5.0
2018-May-17 04:31N 29°29' W 094°35'2 3.8
2018-May-17 03:59N 29°30' W 094°33'2 3.2
2018-May-17 03:30N 29°31' W 094°31'2 3.8
2018-May-17 02:55N 29°32' W 094°29'0 1.1
2018-May-17 02:29N 29°32' W 094°29'2 4.1
2018-May-17 02:00N 29°34' W 094°27'1 1.8
2018-May-17 01:29N 29°34' W 094°26'2 3.6
2018-May-17 01:00N 29°35' W 094°25'2 4.0
2018-May-17 00:30N 29°36' W 094°23'2 4.8
2018-May-17 00:00N 29°37' W 094°20'2 4.8
2018-May-16 23:30N 29°38' W 094°18'2 4.9
2018-May-16 23:00N 29°39' W 094°15'3 5.0
2018-May-16 22:30N 29°40' W 094°13'2 4.9
2018-May-16 22:00N 29°41' W 094°10'2 4.9
2018-May-16 21:30N 29°43' W 094°08'2 4.9
2018-May-16 21:01N 29°44' W 094°06'3 5.0
2018-May-16 20:30N 29°46' W 094°03'2 4.6
2018-May-16 20:00N 29°47' W 094°01'2 4.1
2018-May-16 19:31N 29°49' W 093°60'2 4.6
2018-May-16 19:01N 29°50' W 093°57'3 5.4
2018-May-16 18:30N 29°52' W 093°56'3 5.6
2018-May-16 18:00N 29°54' W 093°54'3 5.7
2018-May-16 17:30N 29°56' W 093°52'2 4.9
2018-May-16 17:01N 29°59' W 093°52'3 5.9
2018-May-16 16:30N 29°59' W 093°56'3 5.1
2018-May-16 16:00N 30°01' W 093°58'3 5.5
2018-May-16 15:30N 30°01' W 094°01'2 3.6
2018-May-16 15:00N 30°03' W 094°02'0 0.6
2018-May-16 14:30N 30°03' W 094°02'0 0.0
2018-May-16 13:57N 30°03' W 094°02'0 0.0
2018-May-16 13:30N 30°03' W 094°02'0 0.0
2018-May-16 13:00N 30°03' W 094°02'0 0.0
2018-May-16 11:36N 30°03' W 094°02'0 0.0
2018-May-16 11:27N 30°03' W 094°02'0 0.0
2018-May-16 10:57N 30°03' W 094°02'0 0.0
2018-May-16 10:21N 30°03' W 094°02'0 0.0
2018-May-16 10:00N 30°03' W 094°02'0 0.0
2018-May-16 09:30N 30°03' W 094°02'0 0.0
2018-May-16 08:54N 30°03' W 094°02'0 0.0
2018-May-16 08:30N 30°03' W 094°02'0 0.0
2018-May-16 07:57N 30°03' W 094°02'0 0.0
2018-May-16 07:18N 30°03' W 094°02'0 0.0
2018-May-16 07:00N 30°03' W 094°02'0 0.0
2018-May-16 06:30N 30°03' W 094°02'0 0.0
2018-May-16 05:54N 30°03' W 094°02'0 0.0
2018-May-16 05:30N 30°03' W 094°02'0 0.0
2018-May-16 05:00N 30°03' W 094°02'0 0.0
2018-May-16 04:30N 30°03' W 094°02'0 0.0
2018-May-16 04:00N 30°03' W 094°02'0 0.0
2018-May-16 03:30N 30°03' W 094°02'0 0.0
2018-May-16 03:00N 30°03' W 094°02'0 0.0
2018-May-16 02:27N 30°03' W 094°02'0 0.0
2018-May-16 02:00N 30°03' W 094°02'0 0.0
2018-May-16 01:30N 30°03' W 094°02'0 0.0
2018-May-16 01:00N 30°03' W 094°02'0 0.0
2018-May-16 00:30N 30°03' W 094°02'0 0.0
2018-May-16 00:00N 30°03' W 094°02'0 0.0
2018-May-15 23:30N 30°03' W 094°02'0 0.0
2018-May-15 23:00N 30°03' W 094°02'0 0.0
2018-May-15 22:24N 30°03' W 094°02'0 0.0
2018-May-15 22:00N 30°03' W 094°02'0 0.0
2018-May-15 21:27N 30°03' W 094°02'0 0.0
2018-May-15 21:00N 30°03' W 094°02'0 0.0
2018-May-15 20:30N 30°03' W 094°02'0 0.0
2018-May-15 20:00N 30°03' W 094°02'0 0.0
2018-May-15 19:30N 30°03' W 094°02'0 0.0
2018-May-15 19:00N 30°03' W 094°02'0 0.0
2018-May-15 18:30N 30°03' W 094°02'0 0.0
2018-May-15 18:00N 30°03' W 094°02'0 0.0
2018-May-15 17:30N 30°03' W 094°02'0 0.0
2018-May-15 17:00N 30°03' W 094°02'0 0.0
2018-May-15 16:30N 30°03' W 094°02'0 0.0
2018-May-15 16:00N 30°03' W 094°02'0 0.0
2018-May-15 15:27N 30°03' W 094°02'0 0.0
2018-May-15 15:00N 30°03' W 094°02'0 0.0
2018-May-15 14:27N 30°03' W 094°02'0 0.0
2018-May-15 14:00N 30°03' W 094°02'0 0.0
2018-May-15 13:30N 30°03' W 094°02'0 0.0
2018-May-15 13:00N 30°03' W 094°02'0 0.0
2018-May-15 12:24N 30°03' W 094°02'0 0.0
2018-May-15 12:00N 30°03' W 094°02'0 0.0
2018-May-15 11:27N 30°03' W 094°02'0 0.0
2018-May-15 11:00N 30°03' W 094°02'0 0.0
2018-May-15 10:30N 30°03' W 094°02'0 0.0
2018-May-15 09:57N 30°03' W 094°02'0 0.0
2018-May-15 09:30N 30°03' W 094°02'0 0.0
2018-May-15 08:57N 30°03' W 094°02'0 0.0
2018-May-15 08:30N 30°03' W 094°02'0 0.0
2018-May-15 08:00N 30°03' W 094°02'0 0.0
2018-May-15 07:30N 30°03' W 094°02'0 0.0
2018-May-15 07:00N 30°03' W 094°02'0 0.0
2018-May-15 06:30N 30°03' W 094°02'0 0.0
2018-May-15 06:00N 30°03' W 094°02'0 0.0
2018-May-15 05:30N 30°03' W 094°02'0 0.0
2018-May-15 05:00N 30°03' W 094°02'0 0.0
2018-May-15 04:27N 30°03' W 094°02'0 0.0
2018-May-15 03:57N 30°03' W 094°02'0 0.0
2018-May-15 03:30N 30°03' W 094°02'0 0.0
2018-May-15 02:59N 30°03' W 094°02'0 0.0
2018-May-15 02:29N 30°03' W 094°02'0 0.0
2018-May-15 01:59N 30°03' W 094°02'0 0.0
2018-May-15 01:29N 30°03' W 094°02'0 0.0
2018-May-15 00:59N 30°03' W 094°02'0 0.0
2018-May-15 00:26N 30°03' W 094°02'0 0.0
2018-May-14 23:59N 30°03' W 094°02'0 0.0
2018-May-14 23:26N 30°03' W 094°02'0 0.0
2018-May-14 22:59N 30°03' W 094°02'0 0.0
2018-May-14 22:29N 30°03' W 094°02'0 0.0
2018-May-14 21:59N 30°03' W 094°02'0 0.0
2018-May-14 21:29N 30°03' W 094°02'0 0.0
2018-May-14 20:59N 30°03' W 094°02'0 0.0
2018-May-14 20:29N 30°03' W 094°02'0 0.0
2018-May-14 19:59N 30°03' W 094°02'0 0.0
2018-May-14 19:26N 30°03' W 094°02'0 0.0
2018-May-14 18:53N 30°03' W 094°02'0 0.0
2018-May-14 18:29N 30°03' W 094°02'0 0.0
2018-May-14 17:59N 30°03' W 094°02'0 0.0
2018-May-14 17:29N 30°03' W 094°02'0 0.0
2018-May-14 16:53N 30°03' W 094°02'0 0.0
2018-May-14 16:29N 30°03' W 094°02'0 0.1
2018-May-14 15:58N 30°03' W 094°02'0 0.0
2018-May-14 15:28N 30°03' W 094°02'2 3.2
2018-May-14 15:00N 30°04' W 094°03'1 1.1
2018-May-14 14:30N 30°04' W 094°02'1 1.9
2018-May-14 13:56N 30°03' W 094°02'0 0.0
2018-May-14 13:29N 30°03' W 094°02'0 0.0
2018-May-14 12:56N 30°03' W 094°02'0 0.0
2018-May-14 12:29N 30°03' W 094°02'0 0.0
2018-May-14 11:53N 30°03' W 094°02'0 0.0
2018-May-14 11:29N 30°03' W 094°02'0 0.0
2018-May-14 10:59N 30°03' W 094°02'0 0.0
2018-May-14 10:29N 30°03' W 094°02'0 0.0
2018-May-14 09:59N 30°03' W 094°02'0 0.0
2018-May-14 09:29N 30°03' W 094°02'0 0.0
2018-May-14 08:59N 30°03' W 094°02'0 0.0
2018-May-14 08:29N 30°03' W 094°02'0 0.0
2018-May-14 07:59N 30°03' W 094°02'0 0.0
2018-May-14 07:29N 30°03' W 094°02'0 0.0
2018-May-14 06:59N 30°03' W 094°02'0 0.0
2018-May-14 06:29N 30°03' W 094°02'0 0.0
2018-May-14 05:59N 30°03' W 094°02'0 0.0
2018-May-14 05:29N 30°03' W 094°02'0 0.0
2018-May-14 04:59N 30°03' W 094°02'0 0.0
2018-May-14 04:29N 30°03' W 094°02'0 0.0
2018-May-14 03:59N 30°03' W 094°02'0 0.0
2018-May-14 03:29N 30°03' W 094°02'0 0.0
2018-May-14 02:59N 30°03' W 094°02'0 0.0
2018-May-14 02:29N 30°03' W 094°02'0 0.0
2018-May-14 01:59N 30°03' W 094°02'0 0.0
2018-May-14 01:29N 30°03' W 094°02'0 0.0
2018-May-14 00:59N 30°03' W 094°02'0 0.0
2018-May-14 00:29N 30°03' W 094°02'0 0.0
2018-May-13 23:59N 30°03' W 094°02'0 0.0
2018-May-13 23:29N 30°03' W 094°02'0 0.0
2018-May-13 22:59N 30°03' W 094°02'0 0.0
2018-May-13 22:29N 30°03' W 094°02'0 0.0
2018-May-13 21:59N 30°03' W 094°02'0 0.0
2018-May-13 21:29N 30°03' W 094°02'0 0.0
2018-May-13 20:59N 30°03' W 094°02'0 0.0
2018-May-13 20:29N 30°03' W 094°02'  
Track history (hours):
 
Tides and Currents Weather Stations Pressure Air Temp Water Temp Dewpoint Dewpoint Depression Visibility Wind Speed Wind Dir Waves Ship Positions

J.e. O'donnell

Owner: Kirby Inland Marine LP, Houston, TX. More information available from US FCC via Universal Licensing System and Coast Guard Vessel Documentation Center.

Last reported at 2018-May-23 20:25 UTC. Time now 2018-Jun-18 15:04 UTC.
Position N 28°56' W 095°19'.
Warning: this ship's position is 25 days out of date.

Length 22 m; draft 3 m.

Type: . MMSI: 366996490.

Date/timePositionNaut miles runAvg speedWind from/ knotsBaromVisibWave heightAir tempDewpointWater temp
2018-May-23 20:25N 28°56' W 095°19'1 1.6
2018-May-23 20:00N 28°56' W 095°20'1 0.3
2018-May-23 17:56N 28°57' W 095°20'0 0.0
2018-May-23 17:20N 28°57' W 095°20'0 1.0
2018-May-23 16:54N 28°57' W 095°20'0 0.0
2018-May-23 16:18N 28°57' W 095°20'0 0.1
2018-May-23 15:51N 28°57' W 095°20'1 1.7
2018-May-23 15:31N 28°57' W 095°20'2 4.1
2018-May-23 14:59N 28°57' W 095°18'3 5.8
2018-May-23 14:30N 28°59' W 095°15'3 6.5
2018-May-23 14:00N 29°02' W 095°14'3 6.7
2018-May-23 13:30N 29°05' W 095°12'3 6.5
2018-May-23 13:00N 29°08' W 095°10'3 6.6
2018-May-23 12:30N 29°10' W 095°07'3 6.6
2018-May-23 12:00N 29°12' W 095°04'3 5.9
2018-May-23 11:30N 29°14' W 095°02'3 6.2
2018-May-23 11:00N 29°16' W 094°59'3 6.1
2018-May-23 10:30N 29°17' W 094°56'3 5.3
2018-May-23 10:00N 29°18' W 094°53'1 2.3
2018-May-23 09:30N 29°19' W 094°52'3 5.6
2018-May-23 09:00N 29°21' W 094°50'3 5.6
2018-May-23 08:30N 29°22' W 094°47'1 0.5
2018-May-23 05:55N 29°23' W 094°46'2 3.9
2018-May-23 05:30N 29°22' W 094°47'2 4.9
2018-May-23 05:00N 29°22' W 094°50'3 5.1
2018-May-23 04:28N 29°23' W 094°53'1 2.0
2018-May-23 03:48N 29°22' W 094°54'2 3.6
2018-May-23 03:22N 29°23' W 094°53'2 4.9
2018-May-23 03:00N 29°22' W 094°51'3 5.0
2018-May-23 02:30N 29°22' W 094°48'10 5.5
2018-May-23 00:39N 29°31' W 094°53'1 5.3
2018-May-23 00:24N 29°32' W 094°54'2 5.1
2018-May-23 00:00N 29°34' W 094°55'3 5.2
2018-May-22 23:30N 29°36' W 094°57'3 5.6
2018-May-22 22:58N 29°39' W 094°58'3 6.4
2018-May-22 22:30N 29°41' W 094°59'4 0.2
2018-May-21 21:56N 29°44' W 095°03'2 3.6
2018-May-21 21:25N 29°43' W 095°01'2 3.8
2018-May-21 21:00N 29°42' W 094°60'2 4.4
2018-May-21 20:30N 29°40' W 094°59'2 4.1
2018-May-21 20:00N 29°38' W 094°58'1 2.9
2018-May-21 19:30N 29°37' W 094°58'2 4.4
2018-May-21 19:00N 29°37' W 095°01'0 0.9
2018-May-21 18:28N 29°37' W 095°01'0 0.0
2018-May-21 17:58N 29°37' W 095°01'0 0.1
2018-May-21 17:28N 29°37' W 095°01'0 0.3
2018-May-21 16:58N 29°37' W 095°01'0 0.1
2018-May-21 16:28N 29°37' W 095°02'0 0.0
2018-May-21 15:58N 29°37' W 095°02'0 0.0
2018-May-21 15:28N 29°37' W 095°02'0 0.0
2018-May-21 14:58N 29°37' W 095°02'0 0.0
2018-May-21 14:28N 29°37' W 095°02'0 0.0
2018-May-21 13:58N 29°37' W 095°02'0 0.0
2018-May-21 13:28N 29°37' W 095°02'0 0.0
2018-May-21 12:58N 29°37' W 095°02'0 0.0
2018-May-21 12:28N 29°37' W 095°02'0 0.0
2018-May-21 11:55N 29°37' W 095°02'0 0.0
2018-May-21 11:25N 29°37' W 095°02'0 0.0
2018-May-21 10:58N 29°37' W 095°02'0 0.0
2018-May-21 10:28N 29°37' W 095°02'0 0.0
2018-May-21 09:58N 29°37' W 095°02'0 0.0
2018-May-21 09:28N 29°37' W 095°02'0 0.0
2018-May-21 08:58N 29°37' W 095°02'0 0.0
2018-May-21 08:28N 29°37' W 095°02'0 0.0
2018-May-21 07:55N 29°37' W 095°02'0 0.0
2018-May-21 07:28N 29°37' W 095°02'0 0.0
2018-May-21 06:58N 29°37' W 095°02'0 0.0
2018-May-21 06:28N 29°37' W 095°02'0 0.0
2018-May-21 05:58N 29°37' W 095°02'0 0.0
2018-May-21 05:28N 29°37' W 095°02'0 0.0
2018-May-21 04:58N 29°37' W 095°02'0 0.0
2018-May-21 04:25N 29°37' W 095°02'0 0.0
2018-May-21 03:58N 29°37' W 095°02'0 0.0
2018-May-21 03:28N 29°37' W 095°02'0 0.0
2018-May-21 02:58N 29°37' W 095°02'0 0.1
2018-May-21 02:30N 29°37' W 095°01'0 0.0
2018-May-21 01:57N 29°37' W 095°01'0 0.0
2018-May-21 01:30N 29°37' W 095°01'0 0.0
2018-May-21 00:57N 29°37' W 095°01'0 0.3
2018-May-21 00:28N 29°37' W 095°01'0 0.2
2018-May-20 23:58N 29°37' W 095°01'0 0.0
2018-May-20 23:28N 29°37' W 095°01'0 0.0
2018-May-20 23:01N 29°37' W 095°01'0 0.0
2018-May-20 22:31N 29°37' W 095°01'0 0.0
2018-May-20 22:01N 29°37' W 095°01'0 0.0
2018-May-20 21:30N 29°37' W 095°01'0 0.0
2018-May-20 21:00N 29°37' W 095°01'0 0.0
2018-May-20 20:30N 29°37' W 095°01'0 0.0
2018-May-20 20:00N 29°37' W 095°01'0 0.1
2018-May-20 19:29N 29°37' W 095°01'0 0.2
2018-May-20 19:00N 29°37' W 095°02'0 0.0
2018-May-20 18:30N 29°37' W 095°02'0 0.0
2018-May-20 18:00N 29°37' W 095°02'0 0.0
2018-May-20 17:30N 29°37' W 095°02'0 0.0
2018-May-20 17:00N 29°37' W 095°02'0 0.0
2018-May-20 16:30N 29°37' W 095°02'0 0.0
2018-May-20 16:00N 29°37' W 095°02'0 0.0
2018-May-20 15:30N 29°37' W 095°02'0 0.0
2018-May-20 15:00N 29°37' W 095°02'0 0.0
2018-May-20 14:26N 29°37' W 095°02'0 0.0
2018-May-20 13:59N 29°37' W 095°02'0 0.0
2018-May-20 13:29N 29°37' W 095°02'0 0.0
2018-May-20 12:59N 29°37' W 095°02'0 0.0
2018-May-20 12:29N 29°37' W 095°02'0 0.0
2018-May-20 11:59N 29°37' W 095°02'0 0.0
2018-May-20 11:29N 29°37' W 095°02'0 0.0
2018-May-20 10:59N 29°37' W 095°02'0 0.0
2018-May-20 10:29N 29°37' W 095°02'0 0.0
2018-May-20 09:59N 29°37' W 095°02'0 0.0
2018-May-20 09:29N 29°37' W 095°02'0 0.0
2018-May-20 08:59N 29°37' W 095°02'0 0.0
2018-May-20 08:29N 29°37' W 095°02'0 0.0
2018-May-20 07:59N 29°37' W 095°02'0 0.0
2018-May-20 07:29N 29°37' W 095°02'0 0.0
2018-May-20 06:59N 29°37' W 095°02'0 0.0
2018-May-20 06:29N 29°37' W 095°02'0 0.1
2018-May-20 05:59N 29°37' W 095°01'0 0.0
2018-May-20 05:29N 29°37' W 095°01'0 0.0
2018-May-20 04:59N 29°37' W 095°01'0 0.0
2018-May-20 04:29N 29°37' W 095°01'0 0.3
2018-May-20 03:59N 29°37' W 095°01'0 0.1
2018-May-20 03:28N 29°37' W 095°01'2 3.7
2018-May-20 03:00N 29°37' W 094°59'2 3.9
2018-May-20 02:30N 29°38' W 094°58'3 6.5
2018-May-20 02:00N 29°41' W 094°59'8 0.2
2018-May-18 11:16N 29°47' W 095°06'0 0.1
2018-May-18 10:57N 29°47' W 095°06'0 0.1
2018-May-18 10:30N 29°47' W 095°06'0 0.0
2018-May-18 10:00N 29°47' W 095°06'0 0.2
2018-May-18 09:29N 29°47' W 095°06'0 0.0
2018-May-18 08:55N 29°47' W 095°06'0 0.2
2018-May-18 08:21N 29°47' W 095°06'0 0.0
2018-May-18 08:00N 29°47' W 095°06'0 0.0
2018-May-18 07:27N 29°47' W 095°06'0 0.0
2018-May-18 07:00N 29°47' W 095°06'0 0.0
2018-May-18 06:30N 29°47' W 095°06'0 0.0
2018-May-18 06:00N 29°47' W 095°06'0 0.0
2018-May-18 05:30N 29°47' W 095°06'0 0.0
2018-May-18 05:00N 29°47' W 095°06'0 0.0
2018-May-18 04:24N 29°47' W 095°06'0 0.0
2018-May-18 04:00N 29°47' W 095°06'0 0.2
2018-May-18 03:20N 29°47' W 095°06'0 0.1
2018-May-18 02:56N 29°47' W 095°06'0 0.1
2018-May-18 02:28N 29°47' W 095°06'1 0.1
2018-May-17 13:32N 29°46' W 095°05'0 3.6
2018-May-17 13:28N 29°46' W 095°05'1 1.1
2018-May-17 12:51N 29°46' W 095°05'1 3.4
2018-May-17 12:28N 29°45' W 095°04'3 5.7
2018-May-17 11:59N 29°44' W 095°01'2 5.1
2018-May-17 11:30N 29°42' W 094°60'3 5.9
2018-May-17 11:00N 29°39' W 094°58'3 6.0
2018-May-17 10:30N 29°36' W 094°57'3 6.0
2018-May-17 10:00N 29°34' W 094°55'3 6.2
2018-May-17 09:30N 29°31' W 094°53'3 5.8
2018-May-17 09:00N 29°29' W 094°51'6 5.4
2018-May-17 07:54N 29°23' W 094°49'2 3.4
2018-May-17 07:19N 29°23' W 094°46'1 2.6
2018-May-17 06:58N 29°24' W 094°46'2 3.6
2018-May-17 06:30N 29°25' W 094°44'3 5.1
2018-May-17 05:59N 29°26' W 094°42'2 3.5
2018-May-17 05:30N 29°27' W 094°40'3 5.3
2018-May-17 05:00N 29°28' W 094°38'2 5.0
2018-May-17 04:31N 29°29' W 094°35'2 3.8
2018-May-17 03:59N 29°30' W 094°33'2 3.2
2018-May-17 03:30N 29°31' W 094°31'2 3.8
2018-May-17 02:55N 29°32' W 094°29'0 1.1
2018-May-17 02:29N 29°32' W 094°29'2 4.1
2018-May-17 02:00N 29°34' W 094°27'1 1.8
2018-May-17 01:29N 29°34' W 094°26'2 3.6
2018-May-17 01:00N 29°35' W 094°25'2 4.0
2018-May-17 00:30N 29°36' W 094°23'2 4.8
2018-May-17 00:00N 29°37' W 094°20'2 4.8
2018-May-16 23:30N 29°38' W 094°18'2 4.9
2018-May-16 23:00N 29°39' W 094°15'3 5.0
2018-May-16 22:30N 29°40' W 094°13'2 4.9
2018-May-16 22:00N 29°41' W 094°10'2 4.9
2018-May-16 21:30N 29°43' W 094°08'2 4.9
2018-May-16 21:01N 29°44' W 094°06'3 5.0
2018-May-16 20:30N 29°46' W 094°03'2 4.6
2018-May-16 20:00N 29°47' W 094°01'2 4.1
2018-May-16 19:31N 29°49' W 093°60'2 4.6
2018-May-16 19:01N 29°50' W 093°57'3 5.4
2018-May-16 18:30N 29°52' W 093°56'3 5.6
2018-May-16 18:00N 29°54' W 093°54'3 5.7
2018-May-16 17:30N 29°56' W 093°52'2 4.9
2018-May-16 17:01N 29°59' W 093°52'3 5.9
2018-May-16 16:30N 29°59' W 093°56'3 5.1
2018-May-16 16:00N 30°01' W 093°58'3 5.5
2018-May-16 15:30N 30°01' W 094°01'2 3.6
2018-May-16 15:00N 30°03' W 094°02'0 0.6
2018-May-16 14:30N 30°03' W 094°02'0 0.0
2018-May-16 13:57N 30°03' W 094°02'0 0.0
2018-May-16 13:30N 30°03' W 094°02'0 0.0
2018-May-16 13:00N 30°03' W 094°02'0 0.0
2018-May-16 11:36N 30°03' W 094°02'0 0.0
2018-May-16 11:27N 30°03' W 094°02'0 0.0
2018-May-16 10:57N 30°03' W 094°02'0 0.0
2018-May-16 10:21N 30°03' W 094°02'0 0.0
2018-May-16 10:00N 30°03' W 094°02'0 0.0
2018-May-16 09:30N 30°03' W 094°02'0 0.0
2018-May-16 08:54N 30°03' W 094°02'0 0.0
2018-May-16 08:30N 30°03' W 094°02'0 0.0
2018-May-16 07:57N 30°03' W 094°02'0 0.0
2018-May-16 07:18N 30°03' W 094°02'0 0.0
2018-May-16 07:00N 30°03' W 094°02'0 0.0
2018-May-16 06:30N 30°03' W 094°02'0 0.0
2018-May-16 05:54N 30°03' W 094°02'0 0.0
2018-May-16 05:30N 30°03' W 094°02'0 0.0
2018-May-16 05:00N 30°03' W 094°02'0 0.0
2018-May-16 04:30N 30°03' W 094°02'0 0.0
2018-May-16 04:00N 30°03' W 094°02'0 0.0
2018-May-16 03:30N 30°03' W 094°02'0 0.0
2018-May-16 03:00N 30°03' W 094°02'0 0.0
2018-May-16 02:27N 30°03' W 094°02'0 0.0
2018-May-16 02:00N 30°03' W 094°02'0 0.0
2018-May-16 01:30N 30°03' W 094°02'0 0.0
2018-May-16 01:00N 30°03' W 094°02'0 0.0
2018-May-16 00:30N 30°03' W 094°02'0 0.0
2018-May-16 00:00N 30°03' W 094°02'0 0.0
2018-May-15 23:30N 30°03' W 094°02'0 0.0
2018-May-15 23:00N 30°03' W 094°02'0 0.0
2018-May-15 22:24N 30°03' W 094°02'0 0.0
2018-May-15 22:00N 30°03' W 094°02'0 0.0
2018-May-15 21:27N 30°03' W 094°02'0 0.0
2018-May-15 21:00N 30°03' W 094°02'0 0.0
2018-May-15 20:30N 30°03' W 094°02'0 0.0
2018-May-15 20:00N 30°03' W 094°02'0 0.0
2018-May-15 19:30N 30°03' W 094°02'0 0.0
2018-May-15 19:00N 30°03' W 094°02'0 0.0
2018-May-15 18:30N 30°03' W 094°02'0 0.0
2018-May-15 18:00N 30°03' W 094°02'0 0.0
2018-May-15 17:30N 30°03' W 094°02'0 0.0
2018-May-15 17:00N 30°03' W 094°02'0 0.0
2018-May-15 16:30N 30°03' W 094°02'0 0.0
2018-May-15 16:00N 30°03' W 094°02'0 0.0
2018-May-15 15:27N 30°03' W 094°02'0 0.0
2018-May-15 15:00N 30°03' W 094°02'0 0.0
2018-May-15 14:27N 30°03' W 094°02'0 0.0
2018-May-15 14:00N 30°03' W 094°02'0 0.0
2018-May-15 13:30N 30°03' W 094°02'0 0.0
2018-May-15 13:00N 30°03' W 094°02'0 0.0
2018-May-15 12:24N 30°03' W 094°02'0 0.0
2018-May-15 12:00N 30°03' W 094°02'0 0.0
2018-May-15 11:27N 30°03' W 094°02'0 0.0
2018-May-15 11:00N 30°03' W 094°02'0 0.0
2018-May-15 10:30N 30°03' W 094°02'0 0.0
2018-May-15 09:57N 30°03' W 094°02'0 0.0
2018-May-15 09:30N 30°03' W 094°02'0 0.0
2018-May-15 08:57N 30°03' W 094°02'0 0.0
2018-May-15 08:30N 30°03' W 094°02'0 0.0
2018-May-15 08:00N 30°03' W 094°02'0 0.0
2018-May-15 07:30N 30°03' W 094°02'0 0.0
2018-May-15 07:00N 30°03' W 094°02'0 0.0
2018-May-15 06:30N 30°03' W 094°02'0 0.0
2018-May-15 06:00N 30°03' W 094°02'0 0.0
2018-May-15 05:30N 30°03' W 094°02'0 0.0
2018-May-15 05:00N 30°03' W 094°02'0 0.0
2018-May-15 04:27N 30°03' W 094°02'0 0.0
2018-May-15 03:57N 30°03' W 094°02'0 0.0
2018-May-15 03:30N 30°03' W 094°02'0 0.0
2018-May-15 02:59N 30°03' W 094°02'0 0.0
2018-May-15 02:29N 30°03' W 094°02'0 0.0
2018-May-15 01:59N 30°03' W 094°02'0 0.0
2018-May-15 01:29N 30°03' W 094°02'0 0.0
2018-May-15 00:59N 30°03' W 094°02'0 0.0
2018-May-15 00:26N 30°03' W 094°02'0 0.0
2018-May-14 23:59N 30°03' W 094°02'0 0.0
2018-May-14 23:26N 30°03' W 094°02'0 0.0
2018-May-14 22:59N 30°03' W 094°02'0 0.0
2018-May-14 22:29N 30°03' W 094°02'0 0.0
2018-May-14 21:59N 30°03' W 094°02'0 0.0
2018-May-14 21:29N 30°03' W 094°02'0 0.0
2018-May-14 20:59N 30°03' W 094°02'0 0.0
2018-May-14 20:29N 30°03' W 094°02'0 0.0
2018-May-14 19:59N 30°03' W 094°02'0 0.0
2018-May-14 19:26N 30°03' W 094°02'0 0.0
2018-May-14 18:53N 30°03' W 094°02'0 0.0
2018-May-14 18:29N 30°03' W 094°02'0 0.0
2018-May-14 17:59N 30°03' W 094°02'0 0.0
2018-May-14 17:29N 30°03' W 094°02'0 0.0
2018-May-14 16:53N 30°03' W 094°02'0 0.0
2018-May-14 16:29N 30°03' W 094°02'0 0.1
2018-May-14 15:58N 30°03' W 094°02'0 0.0
2018-May-14 15:28N 30°03' W 094°02'2 3.2
2018-May-14 15:00N 30°04' W 094°03'1 1.1
2018-May-14 14:30N 30°04' W 094°02'1 1.9
2018-May-14 13:56N 30°03' W 094°02'0 0.0
2018-May-14 13:29N 30°03' W 094°02'0 0.0
2018-May-14 12:56N 30°03' W 094°02'0 0.0
2018-May-14 12:29N 30°03' W 094°02'0 0.0
2018-May-14 11:53N 30°03' W 094°02'0 0.0
2018-May-14 11:29N 30°03' W 094°02'0 0.0
2018-May-14 10:59N 30°03' W 094°02'0 0.0
2018-May-14 10:29N 30°03' W 094°02'0 0.0
2018-May-14 09:59N 30°03' W 094°02'0 0.0
2018-May-14 09:29N 30°03' W 094°02'0 0.0
2018-May-14 08:59N 30°03' W 094°02'0 0.0
2018-May-14 08:29N 30°03' W 094°02'0 0.0
2018-May-14 07:59N 30°03' W 094°02'0 0.0
2018-May-14 07:29N 30°03' W 094°02'0 0.0
2018-May-14 06:59N 30°03' W 094°02'0 0.0
2018-May-14 06:29N 30°03' W 094°02'0 0.0
2018-May-14 05:59N 30°03' W 094°02'0 0.0
2018-May-14 05:29N 30°03' W 094°02'0 0.0
2018-May-14 04:59N 30°03' W 094°02'0 0.0
2018-May-14 04:29N 30°03' W 094°02'0 0.0
2018-May-14 03:59N 30°03' W 094°02'0 0.0
2018-May-14 03:29N 30°03' W 094°02'0 0.0
2018-May-14 02:59N 30°03' W 094°02'0 0.0
2018-May-14 02:29N 30°03' W 094°02'0 0.0
2018-May-14 01:59N 30°03' W 094°02'0 0.0
2018-May-14 01:29N 30°03' W 094°02'0 0.0
2018-May-14 00:59N 30°03' W 094°02'0 0.0
2018-May-14 00:29N 30°03' W 094°02'0 0.0
2018-May-13 23:59N 30°03' W 094°02'0 0.0
2018-May-13 23:29N 30°03' W 094°02'0 0.0
2018-May-13 22:59N 30°03' W 094°02'0 0.0
2018-May-13 22:29N 30°03' W 094°02'0 0.0
2018-May-13 21:59N 30°03' W 094°02'0 0.0
2018-May-13 21:29N 30°03' W 094°02'0 0.0
2018-May-13 20:59N 30°03' W 094°02'0 0.0
2018-May-13 20:29N 30°03' W 094°02'  

Dump ship's entire track history